createdAt,value
2023-03-12T00:00:42.050Z,3.69
2023-03-12T00:03:12.783Z,3.71
2023-03-12T00:05:43.844Z,3.70
2023-03-12T00:08:17.130Z,3.70
2023-03-12T00:10:47.188Z,3.67
2023-03-12T00:13:17.146Z,3.72
2023-03-12T00:15:47.430Z,3.61
2023-03-12T00:18:17.769Z,3.62
2023-03-12T00:20:57.076Z,3.64
2023-03-12T00:23:30.063Z,3.63
2023-03-12T00:26:03.184Z,3.67
2023-03-12T00:28:33.568Z,3.63
2023-03-12T00:31:04.489Z,3.64
2023-03-12T00:33:34.565Z,3.64
2023-03-12T00:36:04.649Z,3.68
2023-03-12T00:38:37.543Z,3.68
2023-03-12T00:41:08.015Z,3.70
2023-03-12T00:43:38.444Z,3.70
2023-03-12T00:46:08.940Z,3.67
2023-03-12T00:48:39.105Z,3.66
2023-03-12T00:51:09.578Z,3.66
2023-03-12T00:53:42.847Z,3.70
2023-03-12T00:56:13.281Z,3.83
2023-03-12T00:58:43.889Z,3.88
2023-03-12T01:01:14.234Z,3.92
2023-03-12T01:03:44.400Z,3.95
2023-03-12T01:06:14.801Z,3.97
2023-03-12T01:08:48.070Z,4.05
2023-03-12T01:11:18.735Z,4.16
2023-03-12T01:13:49.258Z,4.18
2023-03-12T01:16:19.296Z,4.20
2023-03-12T01:18:49.836Z,4.24
2023-03-12T01:21:19.777Z,4.27
2023-03-12T01:23:52.594Z,4.31
2023-03-12T01:26:23.163Z,4.27
2023-03-12T01:28:53.757Z,4.33
2023-03-12T01:31:24.222Z,4.41
2023-03-12T01:33:55.538Z,4.45
2023-03-12T01:36:27.111Z,4.50
2023-03-12T01:39:02.113Z,4.47
2023-03-12T01:41:35.216Z,4.44
2023-03-12T01:44:07.820Z,4.49
2023-03-12T01:46:39.348Z,4.53
2023-03-12T01:49:16.074Z,4.60
2023-03-12T01:51:49.427Z,4.64
2023-03-12T01:54:25.789Z,4.65
2023-03-12T01:56:57.143Z,4.62
2023-03-12T01:59:32.197Z,4.61
2023-03-12T02:02:02.542Z,4.65
2023-03-12T02:04:34.934Z,4.66
2023-03-12T02:07:08.665Z,4.67
2023-03-12T02:09:44.465Z,4.66
2023-03-12T02:12:15.291Z,4.65
2023-03-12T02:14:45.967Z,4.67
2023-03-12T02:17:16.108Z,4.77
2023-03-12T02:19:55.402Z,4.80
2023-03-12T02:22:26.535Z,4.67
2023-03-12T02:25:05.735Z,4.58
2023-03-12T02:27:40.620Z,4.50
2023-03-12T02:30:16.005Z,4.49
2023-03-12T02:32:48.293Z,4.47
2023-03-12T02:35:20.370Z,4.47
2023-03-12T02:37:51.667Z,4.43
2023-03-12T02:40:27.537Z,4.32
2023-03-12T02:43:00.718Z,4.23
2023-03-12T02:45:31.348Z,4.13
2023-03-12T02:48:01.891Z,4.07
2023-03-12T02:50:32.192Z,4.04
2023-03-12T02:53:02.214Z,3.94
2023-03-12T02:55:32.453Z,3.88
2023-03-12T02:58:05.197Z,3.83
2023-03-12T03:00:35.509Z,3.80
2023-03-12T03:03:05.604Z,3.75
2023-03-12T03:05:36.932Z,3.71
2023-03-12T03:08:08.117Z,3.64
2023-03-12T03:10:38.158Z,3.60
2023-03-12T03:13:12.050Z,3.56
2023-03-12T03:15:42.077Z,3.50
2023-03-12T03:18:12.127Z,3.42
2023-03-12T03:20:44.403Z,3.43
2023-03-12T03:23:14.428Z,3.36
2023-03-12T03:25:44.467Z,3.36
2023-03-12T03:28:17.317Z,3.31
2023-03-12T03:30:47.514Z,3.33
2023-03-12T03:33:18.160Z,3.30
2023-03-12T03:35:48.385Z,3.30
2023-03-12T03:38:18.794Z,3.30
2023-03-12T03:40:49.596Z,3.32
2023-03-12T03:43:22.493Z,3.30
2023-03-12T03:46:00.497Z,3.24
2023-03-12T03:48:30.875Z,3.21
2023-03-12T03:51:03.801Z,3.17
2023-03-12T03:53:37.023Z,3.12
2023-03-12T03:56:11.214Z,3.10
2023-03-12T03:58:47.906Z,3.04
2023-03-12T04:01:20.183Z,3.06
2023-03-12T04:03:51.213Z,3.05
2023-03-12T04:06:21.837Z,3.01
2023-03-12T04:08:51.961Z,2.98
2023-03-12T04:11:29.260Z,2.94
2023-03-12T04:14:06.423Z,2.94
2023-03-12T04:16:38.230Z,2.94
2023-03-12T04:19:08.692Z,2.95
2023-03-12T04:21:39.664Z,2.96
2023-03-12T04:24:10.650Z,2.99
2023-03-12T04:26:40.705Z,2.95
2023-03-12T04:29:13.901Z,2.91
2023-03-12T04:31:45.090Z,2.88
2023-03-12T04:34:15.658Z,2.88
2023-03-12T04:36:49.626Z,2.89
2023-03-12T04:39:21.429Z,2.91
2023-03-12T04:41:53.831Z,2.90
2023-03-12T04:44:26.715Z,2.89
2023-03-12T04:46:56.870Z,2.88
2023-03-12T04:49:28.934Z,2.94
2023-03-12T04:51:59.167Z,2.94
2023-03-12T04:54:31.919Z,2.91
2023-03-12T04:57:02.251Z,2.89
2023-03-12T04:59:34.974Z,2.90
2023-03-12T05:02:04.932Z,2.91
2023-03-12T05:04:35.012Z,2.93
2023-03-12T05:07:05.990Z,2.92
2023-03-12T05:09:36.120Z,2.94
2023-03-12T05:12:06.513Z,2.95
2023-03-12T05:14:39.951Z,2.93
2023-03-12T05:17:11.243Z,2.91
2023-03-12T05:19:41.243Z,2.93
2023-03-12T05:22:11.357Z,2.92
2023-03-12T05:24:41.382Z,2.87
2023-03-12T05:27:11.696Z,2.81
2023-03-12T05:29:46.351Z,2.81
2023-03-12T05:32:17.438Z,2.81
2023-03-12T05:34:47.713Z,2.85
2023-03-12T05:37:17.860Z,2.89
2023-03-12T05:39:51.185Z,2.89
2023-03-12T05:42:21.433Z,3.00
2023-03-12T05:44:55.152Z,3.05
2023-03-12T05:47:26.068Z,3.07
2023-03-12T05:49:56.050Z,3.19
2023-03-12T05:52:26.012Z,3.48
2023-03-12T05:54:56.204Z,3.85
2023-03-12T05:57:26.204Z,4.27
2023-03-12T05:59:58.817Z,4.65
2023-03-12T06:02:30.094Z,5.02
2023-03-12T06:05:00.148Z,5.31
2023-03-12T06:07:30.098Z,5.43
2023-03-12T06:10:00.405Z,5.63
2023-03-12T06:12:30.527Z,5.91
2023-03-12T06:15:03.239Z,6.23
2023-03-12T06:17:34.586Z,6.58
2023-03-12T06:20:06.070Z,6.90
2023-03-12T06:22:36.132Z,7.17
2023-03-12T06:25:07.122Z,7.48
2023-03-12T06:27:38.410Z,7.93
2023-03-12T06:30:12.424Z,8.42
2023-03-12T06:32:42.545Z,8.83
2023-03-12T06:35:13.045Z,9.16
2023-03-12T06:37:43.019Z,9.33
2023-03-12T06:40:14.639Z,9.31
2023-03-12T06:42:44.701Z,9.15
2023-03-12T06:45:17.674Z,9.30
2023-03-12T06:47:47.713Z,9.39
2023-03-12T06:50:17.896Z,9.37
2023-03-12T06:52:47.906Z,9.48
2023-03-12T06:55:18.038Z,9.86
2023-03-12T06:57:48.054Z,10.29
2023-03-12T07:00:21.742Z,10.62
2023-03-12T07:02:51.734Z,10.84
2023-03-12T07:05:24.640Z,10.93
2023-03-12T07:07:54.845Z,11.24
2023-03-12T07:10:25.338Z,11.51
2023-03-12T07:12:55.335Z,11.44
2023-03-12T07:15:27.959Z,11.40
2023-03-12T07:17:57.884Z,11.24
2023-03-12T07:20:27.819Z,11.09
2023-03-12T07:22:57.736Z,10.78
2023-03-12T07:25:27.675Z,10.33
2023-03-12T07:27:57.641Z,10.02
2023-03-12T07:30:33.520Z,9.97
2023-03-12T07:33:03.726Z,9.92
2023-03-12T07:35:34.679Z,9.89
2023-03-12T07:38:05.731Z,9.87
2023-03-12T07:40:35.822Z,9.70
2023-03-12T07:43:11.047Z,9.44
2023-03-12T07:45:45.852Z,9.25
2023-03-12T07:48:15.936Z,9.31
2023-03-12T07:50:46.157Z,9.67
2023-03-12T07:53:16.502Z,10.15
2023-03-12T07:55:48.543Z,10.87
2023-03-12T07:58:19.704Z,11.86
2023-03-12T08:00:53.844Z,12.58
2023-03-12T08:03:24.961Z,12.91
2023-03-12T08:06:03.213Z,13.58
2023-03-12T08:08:34.831Z,13.76
2023-03-12T08:11:07.247Z,13.59
2023-03-12T08:13:37.869Z,13.97
2023-03-12T08:16:10.885Z,14.41
2023-03-12T08:18:43.083Z,14.40
2023-03-12T08:21:16.494Z,13.88
2023-03-12T08:23:51.866Z,13.36
2023-03-12T08:26:22.101Z,13.31
2023-03-12T08:28:52.209Z,13.57
2023-03-12T08:31:25.063Z,13.80
2023-03-12T08:33:55.038Z,13.62
2023-03-12T08:36:25.025Z,13.51
2023-03-12T08:38:55.044Z,13.96
2023-03-12T08:41:25.029Z,14.49
2023-03-12T08:43:55.173Z,15.10
2023-03-12T08:46:27.784Z,15.55
2023-03-12T08:48:57.772Z,15.80
2023-03-12T08:51:27.792Z,16.21
2023-03-12T08:53:58.023Z,16.24
2023-03-12T08:56:27.997Z,15.95
2023-03-12T08:58:58.226Z,15.56
2023-03-12T09:01:30.931Z,15.49
2023-03-12T09:04:02.657Z,15.26
2023-03-12T09:06:33.550Z,14.64
2023-03-12T09:09:05.132Z,14.35
2023-03-12T09:11:36.564Z,14.50
2023-03-12T09:17:00.039Z,15.27
2023-03-12T09:19:30.097Z,15.51
2023-03-12T09:22:02.168Z,15.58
2023-03-12T09:24:32.181Z,15.81
2023-03-12T09:27:02.183Z,15.91
2023-03-12T09:29:32.212Z,16.13
2023-03-12T09:32:06.042Z,16.14
2023-03-12T09:34:36.123Z,15.88
2023-03-12T09:37:06.152Z,15.84
2023-03-12T09:39:36.123Z,15.95
2023-03-12T09:42:07.796Z,16.05
2023-03-12T09:44:42.534Z,16.19
2023-03-12T09:47:26.945Z,16.18
2023-03-12T09:50:00.655Z,16.34
2023-03-12T09:52:35.733Z,16.04
2023-03-12T09:55:15.267Z,15.59
2023-03-12T09:57:46.624Z,15.51
2023-03-12T10:00:33.557Z,14.97
2023-03-12T10:03:38.869Z,14.12
2023-03-12T10:06:16.090Z,13.22
2023-03-12T10:09:02.260Z,13.08
2023-03-12T10:11:42.063Z,12.92
2023-03-12T10:14:24.770Z,13.40
2023-03-12T10:17:11.682Z,13.85
2023-03-12T10:20:02.595Z,14.37
2023-03-12T10:22:48.628Z,14.86
2023-03-12T10:25:27.216Z,15.00
2023-03-12T10:28:02.004Z,14.96
2023-03-12T10:30:36.483Z,14.46
2023-03-12T10:33:15.137Z,14.30
2023-03-12T10:35:48.035Z,14.39
2023-03-12T10:38:20.833Z,14.26
2023-03-12T10:40:50.990Z,13.99
2023-03-12T10:43:21.070Z,14.08
2023-03-12T10:46:05.014Z,14.91
2023-03-12T10:48:35.084Z,15.57
2023-03-12T10:51:09.869Z,15.85
2023-03-12T10:53:42.938Z,16.58
2023-03-12T10:56:14.820Z,16.63
2023-03-12T10:58:47.201Z,16.23
2023-03-12T11:01:23.945Z,16.67
2023-03-12T11:03:55.230Z,16.36
2023-03-12T11:06:30.245Z,16.05
2023-03-12T11:09:17.439Z,16.24
2023-03-12T11:11:50.131Z,15.79
2023-03-12T11:14:22.726Z,15.21
2023-03-12T11:16:52.833Z,14.76
2023-03-12T11:19:33.657Z,14.88
2023-03-12T11:22:08.966Z,14.95
2023-03-12T11:24:39.018Z,14.40
2023-03-12T11:27:17.571Z,14.31
2023-03-12T11:29:51.692Z,14.65
2023-03-12T11:32:28.713Z,14.89
2023-03-12T11:34:58.872Z,14.81
2023-03-12T11:37:40.465Z,14.72
2023-03-12T11:40:24.252Z,15.08
2023-03-12T11:43:11.772Z,15.52
2023-03-12T11:45:54.627Z,16.24
2023-03-12T11:48:31.681Z,16.80
2023-03-12T11:51:15.222Z,16.78
2023-03-12T11:54:01.392Z,15.70
2023-03-12T11:56:33.310Z,15.14
2023-03-12T11:59:30.706Z,14.66
2023-03-12T12:02:14.094Z,13.85
2023-03-12T12:05:14.676Z,13.21
2023-03-12T12:07:56.772Z,12.46
2023-03-12T12:10:34.276Z,12.20
2023-03-12T12:13:13.652Z,12.24
2023-03-12T12:15:55.264Z,12.03
2023-03-12T12:18:45.581Z,11.68
2023-03-12T12:21:31.896Z,11.35
2023-03-12T12:24:12.632Z,11.28
2023-03-12T12:26:52.688Z,11.77
2023-03-12T12:29:36.866Z,12.14
2023-03-12T12:32:15.866Z,11.65
2023-03-12T12:35:02.803Z,11.56
2023-03-12T12:37:55.712Z,11.40
2023-03-12T12:40:30.007Z,11.19
2023-03-12T12:43:18.967Z,11.09
2023-03-12T12:45:51.733Z,11.21
2023-03-12T12:48:26.225Z,11.29
2023-03-12T12:51:00.149Z,11.36
2023-03-12T12:53:40.363Z,11.26
2023-03-12T12:56:17.344Z,11.31
2023-03-12T12:59:06.109Z,11.27
2023-03-12T13:01:38.042Z,11.18
2023-03-12T13:04:13.940Z,11.39
2023-03-12T13:07:06.815Z,11.83
2023-03-12T17:09:27.388Z,3.77
2023-03-12T17:11:57.777Z,4.67
2023-03-12T17:14:28.644Z,5.24
2023-03-12T17:16:58.652Z,5.75
2023-03-12T17:19:28.624Z,6.07
2023-03-12T17:21:59.462Z,6.25
2023-03-12T17:24:32.105Z,6.42
2023-03-12T17:27:02.424Z,6.54
2023-03-12T17:29:32.864Z,6.67
2023-03-12T17:32:03.232Z,6.83
2023-03-12T17:34:33.369Z,6.96
2023-03-12T17:37:03.580Z,7.01
2023-03-12T17:39:37.111Z,7.11
2023-03-12T17:42:07.470Z,7.11
2023-03-12T17:44:39.136Z,7.08
2023-03-12T17:47:09.328Z,6.97
2023-03-12T17:49:39.613Z,6.95
2023-03-12T17:52:09.620Z,6.95
2023-03-12T17:54:42.508Z,6.89
2023-03-12T17:57:12.614Z,6.83
2023-03-12T17:59:42.735Z,6.74
2023-03-12T18:02:14.271Z,6.62
2023-03-12T18:04:44.527Z,6.57
2023-03-12T18:07:14.702Z,6.52
2023-03-12T18:09:47.420Z,6.42
2023-03-12T18:12:17.418Z,6.42
2023-03-12T18:14:47.550Z,6.44
2023-03-12T18:17:17.644Z,6.38
2023-03-12T18:19:47.853Z,6.32
2023-03-12T18:22:19.729Z,6.28
2023-03-12T18:24:52.399Z,6.22
2023-03-12T18:27:22.802Z,6.21
2023-03-12T18:29:52.756Z,6.28
2023-03-12T18:32:22.767Z,6.30
2023-03-12T18:34:53.326Z,6.16
2023-03-12T18:37:23.801Z,6.09
2023-03-12T18:39:56.554Z,6.12
2023-03-12T18:42:26.669Z,6.22
2023-03-12T18:44:56.671Z,6.16
2023-03-12T18:47:26.695Z,6.11
2023-03-12T18:49:57.062Z,6.06
2023-03-12T18:52:31.280Z,6.15
2023-03-12T18:55:04.464Z,6.05
2023-03-12T18:57:34.897Z,6.03
2023-03-12T19:00:06.342Z,6.04
2023-03-12T19:02:36.630Z,5.93
2023-03-12T19:05:07.317Z,6.00
2023-03-12T19:07:38.992Z,6.05
2023-03-12T19:10:14.194Z,5.99
2023-03-12T19:12:53.589Z,5.85
2023-03-12T19:15:26.003Z,5.92
2023-03-12T19:17:58.405Z,5.92
2023-03-12T19:20:28.380Z,5.78
2023-03-12T19:22:58.782Z,5.79
2023-03-12T19:25:32.255Z,5.90
2023-03-12T19:28:02.501Z,5.81
2023-03-12T19:30:33.562Z,5.73
2023-03-12T19:33:03.726Z,5.74
2023-03-12T19:35:35.043Z,5.85
2023-03-12T19:38:06.186Z,5.80
2023-03-12T19:40:41.837Z,5.81
2023-03-12T19:43:14.676Z,5.83
2023-03-12T19:45:44.874Z,5.90
2023-03-12T19:48:15.582Z,5.92
2023-03-12T19:50:46.521Z,5.93
2023-03-12T19:53:17.771Z,5.95
2023-03-12T19:55:51.911Z,5.95
2023-03-12T19:58:22.018Z,5.94
2023-03-12T20:00:52.279Z,6.00
2023-03-12T20:03:23.250Z,6.02
2023-03-12T20:05:53.623Z,6.07
2023-03-12T20:08:26.228Z,6.10
2023-03-12T20:11:04.553Z,6.16
2023-03-12T20:13:35.421Z,6.17
2023-03-12T20:16:06.789Z,6.10
2023-03-12T20:18:36.895Z,6.16
2023-03-12T20:21:07.380Z,6.23
2023-03-12T20:23:37.472Z,6.16
2023-03-12T20:26:10.361Z,6.20
2023-03-12T20:28:40.575Z,6.16
2023-03-12T20:31:12.252Z,6.27
2023-03-12T20:33:42.586Z,6.35
2023-03-12T20:36:15.159Z,6.39
2023-03-12T20:38:45.659Z,6.48
2023-03-12T20:41:19.182Z,6.52
2023-03-12T20:43:49.216Z,6.50
2023-03-12T20:46:19.289Z,6.48
2023-03-12T20:48:49.361Z,6.48
2023-03-12T20:51:19.595Z,6.52
2023-03-12T20:54:04.321Z,6.55
2023-03-12T20:56:38.408Z,6.59
2023-03-12T20:59:08.579Z,6.57
2023-03-12T21:01:38.836Z,6.64
2023-03-12T21:04:09.007Z,6.70
2023-03-12T21:06:39.572Z,6.74
2023-03-12T21:09:10.041Z,6.77
2023-03-12T21:11:42.653Z,6.87
2023-03-12T21:14:12.753Z,6.88
2023-03-12T21:16:42.941Z,6.93
2023-03-12T21:19:12.942Z,7.01
2023-03-12T21:21:43.270Z,7.09
2023-03-12T21:24:13.676Z,7.09
2023-03-12T21:26:48.544Z,7.20
2023-03-12T21:29:18.899Z,7.28
2023-03-12T21:31:53.895Z,7.30
2023-03-12T21:34:26.488Z,7.33
2023-03-12T21:36:56.957Z,7.36
2023-03-12T21:39:27.309Z,7.40
2023-03-12T21:41:59.948Z,7.45
2023-03-12T21:44:30.229Z,7.46
2023-03-12T21:47:00.411Z,7.37
2023-03-12T21:49:30.678Z,7.39
2023-03-12T21:52:00.735Z,7.51
2023-03-12T21:54:35.789Z,7.64
2023-03-12T21:57:08.906Z,7.70
2023-03-12T21:59:43.452Z,7.62
2023-03-12T22:02:14.655Z,7.58
2023-03-12T22:04:48.640Z,7.59
2023-03-12T22:07:18.690Z,7.60
2023-03-12T22:09:50.995Z,7.65
2023-03-12T22:12:26.719Z,7.70
2023-03-12T22:14:56.849Z,7.72
2023-03-12T22:17:29.004Z,7.75
2023-03-12T22:19:59.219Z,7.70
2023-03-12T22:22:35.078Z,7.80
2023-03-12T22:25:05.143Z,7.82
2023-03-12T22:27:48.199Z,7.83
2023-03-12T22:30:24.284Z,7.93
2023-03-12T22:32:56.139Z,7.94
2023-03-12T22:35:27.389Z,7.92
2023-03-12T22:37:57.532Z,7.94
2023-03-12T22:40:32.636Z,8.03
2023-03-12T22:43:05.254Z,8.02
2023-03-12T22:45:35.670Z,8.03
2023-03-12T22:48:06.194Z,7.99
2023-03-12T22:50:36.729Z,7.97
2023-03-12T22:53:06.848Z,7.97
2023-03-12T22:55:36.832Z,8.01
2023-03-12T22:58:10.465Z,7.98
2023-03-12T23:00:40.714Z,7.99
2023-03-12T23:03:10.770Z,8.03
2023-03-12T23:05:40.767Z,8.07
2023-03-12T23:08:10.913Z,8.10
2023-03-12T23:10:41.062Z,8.07
2023-03-12T23:13:13.693Z,8.06
2023-03-12T23:15:43.666Z,8.12
2023-03-12T23:18:14.542Z,8.17
2023-03-12T23:20:44.804Z,8.17
2023-03-12T23:23:15.643Z,8.24
2023-03-12T23:25:47.482Z,8.28
2023-03-12T23:28:20.036Z,8.26
2023-03-12T23:30:56.590Z,8.26
2023-03-12T23:33:26.947Z,8.30
2023-03-12T23:35:58.226Z,8.37
2023-03-12T23:38:29.129Z,8.33
2023-03-12T23:41:03.658Z,8.36
2023-03-12T23:43:36.892Z,8.34
2023-03-12T23:46:08.717Z,8.25
2023-03-12T23:48:40.889Z,8.26
2023-03-12T23:51:12.589Z,8.29
2023-03-12T23:53:43.889Z,8.34
2023-03-12T23:56:30.491Z,8.37
2023-03-12T23:59:03.197Z,8.36
